createdAt,value
2019-05-11T00:00:42.544Z,56.40
2019-05-11T00:03:16.301Z,56.30
2019-05-11T00:05:50.037Z,56.40
2019-05-11T00:08:24.056Z,56.40
2019-05-11T00:10:57.885Z,56.50
2019-05-11T00:13:31.668Z,56.40
2019-05-11T00:16:05.410Z,56.40
2019-05-11T00:18:39.096Z,56.40
2019-05-11T00:21:12.845Z,56.40
2019-05-11T00:23:46.679Z,56.40
2019-05-11T00:26:20.444Z,56.40
2019-05-11T00:28:54.329Z,56.40
2019-05-11T00:31:28.044Z,56.40
2019-05-11T00:34:01.931Z,56.40
2019-05-11T00:36:35.805Z,56.50
2019-05-11T00:39:09.604Z,56.50
2019-05-11T00:41:43.328Z,56.50
2019-05-11T00:44:17.246Z,56.60
2019-05-11T00:46:50.922Z,56.70
2019-05-11T00:49:24.725Z,56.70
2019-05-11T00:51:58.532Z,56.80
2019-05-11T00:54:32.279Z,56.80
2019-05-11T00:57:06.160Z,56.80
2019-05-11T00:59:39.895Z,56.80
2019-05-11T01:02:14.014Z,56.80
2019-05-11T01:04:47.987Z,56.80
2019-05-11T01:07:21.824Z,56.80
2019-05-11T01:09:55.674Z,56.80
2019-05-11T01:12:29.537Z,56.80
2019-05-11T01:15:03.690Z,57.00
2019-05-11T01:17:37.408Z,57.00
2019-05-11T01:20:12.794Z,57.00
2019-05-11T01:22:46.614Z,57.10
2019-05-11T01:25:20.471Z,57.10
2019-05-11T01:27:54.202Z,57.10
2019-05-11T01:30:28.101Z,57.10
2019-05-11T01:33:01.833Z,57.20
2019-05-11T01:35:35.618Z,57.40
2019-05-11T01:38:09.344Z,57.50
2019-05-11T01:40:57.621Z,57.50
2019-05-11T01:43:18.957Z,57.60
2019-05-11T01:45:52.800Z,57.60
2019-05-11T01:48:26.622Z,57.50
2019-05-11T01:51:00.459Z,57.60
2019-05-11T01:53:34.223Z,57.60
2019-05-11T01:56:07.970Z,57.50
2019-05-11T01:58:41.586Z,57.50
2019-05-11T02:01:15.355Z,57.50
2019-05-11T02:03:49.251Z,57.60
2019-05-11T02:06:23.066Z,57.60
2019-05-11T02:08:57.127Z,57.60
2019-05-11T02:11:30.940Z,57.70
2019-05-11T02:14:04.841Z,57.90
2019-05-11T02:16:38.723Z,58.70
2019-05-11T02:19:12.520Z,58.20
2019-05-11T02:21:46.553Z,58.20
2019-05-11T02:24:20.382Z,58.30
2019-05-11T02:26:54.229Z,58.50
2019-05-11T02:29:27.909Z,58.50
2019-05-11T02:32:01.732Z,58.60
2019-05-11T02:34:35.402Z,58.60
2019-05-11T02:37:09.111Z,58.70
2019-05-11T02:39:42.814Z,58.70
2019-05-11T02:42:16.680Z,58.70
2019-05-11T02:44:50.473Z,58.70
2019-05-11T02:47:24.394Z,58.90
2019-05-11T02:49:58.286Z,58.80
2019-05-11T02:52:33.293Z,58.80
2019-05-11T02:55:07.916Z,58.90
2019-05-11T02:57:41.721Z,58.80
2019-05-11T03:00:20.218Z,59.00
2019-05-11T03:02:54.037Z,59.00
2019-05-11T03:05:27.932Z,59.00
2019-05-11T03:08:01.819Z,59.00
2019-05-11T03:10:35.833Z,59.00
2019-05-11T03:13:09.490Z,59.10
2019-05-11T03:15:43.280Z,59.30
2019-05-11T03:18:16.983Z,59.30
2019-05-11T03:20:51.104Z,59.30
2019-05-11T03:23:24.948Z,59.40
2019-05-11T03:25:58.642Z,59.50
2019-05-11T03:28:32.468Z,59.50
2019-05-11T03:31:06.318Z,59.60
2019-05-11T03:33:40.226Z,59.50
2019-05-11T03:36:13.938Z,59.40
2019-05-11T03:38:47.745Z,59.30
2019-05-11T03:41:21.640Z,59.30
2019-05-11T03:43:55.249Z,59.10
2019-05-11T03:46:29.038Z,59.10
2019-05-11T03:49:02.731Z,59.00
2019-05-11T03:51:36.859Z,59.10
2019-05-11T03:54:10.627Z,59.30
2019-05-11T03:56:44.535Z,59.20
2019-05-11T03:59:18.224Z,59.20
2019-05-11T04:01:52.034Z,59.20
2019-05-11T04:04:25.936Z,59.20
2019-05-11T04:06:59.783Z,59.20
2019-05-11T04:09:33.416Z,59.30
2019-05-11T04:12:07.135Z,59.30
2019-05-11T04:14:40.882Z,59.50
2019-05-11T04:17:14.624Z,59.60
2019-05-11T04:19:48.399Z,59.50
2019-05-11T04:22:22.136Z,59.50
2019-05-11T04:24:55.751Z,59.60
2019-05-11T04:27:29.646Z,59.80
2019-05-11T04:30:03.821Z,60.10
2019-05-11T04:32:37.532Z,60.10
2019-05-11T04:35:11.649Z,60.40
2019-05-11T04:37:45.598Z,60.40
2019-05-11T04:40:19.418Z,60.70
2019-05-11T04:42:55.714Z,60.80
2019-05-11T04:45:28.523Z,60.80
2019-05-11T04:48:02.287Z,60.90
2019-05-11T04:50:36.044Z,60.80
2019-05-11T04:53:09.741Z,61.00
2019-05-11T04:55:43.570Z,61.00
2019-05-11T04:58:17.446Z,61.90
2019-05-11T05:00:51.082Z,60.90
2019-05-11T05:03:39.654Z,60.70
2019-05-11T05:06:20.846Z,60.60
2019-05-11T05:08:35.570Z,59.90
2019-05-11T05:11:09.313Z,59.40
2019-05-11T05:13:43.071Z,58.80
2019-05-11T05:16:16.964Z,58.20
2019-05-11T05:18:50.694Z,57.50
2019-05-11T05:21:24.378Z,56.70
2019-05-11T05:23:58.032Z,56.10
2019-05-11T05:26:31.858Z,55.20
2019-05-11T05:29:05.574Z,54.40
2019-05-11T05:31:39.510Z,53.60
2019-05-11T05:34:13.198Z,52.90
2019-05-11T05:36:46.953Z,52.20
2019-05-11T05:39:20.620Z,51.60
2019-05-11T05:41:57.104Z,51.20
2019-05-11T05:44:29.571Z,50.50
2019-05-11T05:47:03.303Z,50.00
2019-05-11T05:49:37.055Z,48.90
2019-05-11T05:52:10.810Z,48.20
2019-05-11T05:54:44.553Z,46.90
2019-05-11T05:57:18.563Z,46.70
2019-05-11T05:59:52.365Z,47.10
2019-05-11T06:02:26.191Z,47.10
2019-05-11T06:04:59.885Z,45.50
2019-05-11T06:07:33.725Z,45.00
2019-05-11T06:10:07.707Z,45.60
2019-05-11T06:12:41.346Z,46.10
2019-05-11T06:15:15.524Z,46.20
2019-05-11T06:17:49.227Z,46.10
2019-05-11T06:20:23.142Z,46.00
2019-05-11T06:22:56.885Z,45.70
2019-05-11T06:25:30.631Z,43.80
2019-05-11T06:28:04.518Z,44.20
2019-05-11T06:30:38.134Z,43.70
2019-05-11T06:33:11.891Z,42.70
2019-05-11T06:35:45.737Z,42.30
2019-05-11T06:38:19.338Z,41.00
2019-05-11T06:40:55.745Z,39.20
2019-05-11T06:43:29.353Z,40.60
2019-05-11T06:46:03.034Z,41.30
2019-05-11T06:48:37.022Z,39.50
2019-05-11T06:51:10.790Z,39.50
2019-05-11T06:53:44.475Z,37.90
2019-05-11T06:56:18.274Z,37.70
2019-05-11T06:58:51.895Z,38.30
2019-05-11T07:01:25.915Z,39.00
2019-05-11T07:03:59.522Z,39.40
2019-05-11T07:06:33.396Z,38.00
2019-05-11T07:09:07.581Z,39.30
2019-05-11T07:11:41.212Z,39.10
2019-05-11T07:14:20.677Z,38.80
2019-05-11T07:16:50.303Z,37.80
2019-05-11T07:19:24.052Z,36.10
2019-05-11T07:21:57.683Z,36.20
2019-05-11T07:24:31.515Z,37.00
2019-05-11T07:27:05.350Z,35.50
2019-05-11T07:29:39.065Z,36.70
2019-05-11T07:32:22.444Z,35.80
2019-05-11T07:34:48.788Z,36.20
2019-05-11T07:37:24.403Z,36.70
2019-05-11T07:39:58.283Z,37.80
2019-05-11T07:42:32.074Z,38.50
2019-05-11T07:45:08.905Z,38.80
2019-05-11T07:47:42.451Z,39.70
2019-05-11T07:50:18.147Z,39.60
2019-05-11T07:52:51.991Z,39.00
2019-05-11T07:55:28.104Z,38.30
2019-05-11T07:58:01.261Z,38.10
2019-05-11T08:00:37.446Z,37.40
2019-05-11T08:03:10.371Z,37.80
2019-05-11T08:05:44.130Z,34.20
2019-05-11T08:08:18.197Z,34.50
2019-05-11T08:10:52.261Z,34.80
2019-05-11T08:13:28.268Z,36.00
2019-05-11T08:16:01.724Z,36.30
2019-05-11T08:18:35.430Z,36.40
2019-05-11T08:21:09.315Z,35.50
2019-05-11T08:23:42.969Z,33.90
2019-05-11T08:26:18.798Z,35.30
2019-05-11T08:28:52.152Z,34.70
2019-05-11T08:31:27.942Z,34.20
2019-05-11T08:34:01.410Z,34.60
2019-05-11T08:36:37.677Z,34.30
2019-05-11T08:39:10.645Z,33.50
2019-05-11T08:41:44.300Z,32.60
2019-05-11T08:44:18.270Z,32.00
2019-05-11T08:46:52.202Z,31.40
2019-05-11T08:49:26.326Z,30.70
2019-05-11T08:52:01.198Z,30.70
2019-05-11T08:54:34.852Z,30.70
2019-05-11T08:57:08.658Z,29.60
2019-05-11T08:59:42.306Z,28.20
2019-05-11T09:02:18.461Z,29.40
2019-05-11T09:04:52.001Z,30.10
2019-05-11T09:07:27.790Z,31.20
2019-05-11T09:10:01.295Z,32.10
2019-05-11T09:12:35.016Z,31.80
2019-05-11T09:15:09.495Z,31.50
2019-05-11T09:17:43.224Z,31.10
2019-05-11T09:20:17.982Z,30.90
2019-05-11T09:22:52.100Z,30.90
2019-05-11T09:25:27.790Z,31.40
2019-05-11T09:28:01.113Z,31.50
2019-05-11T09:30:34.994Z,31.60
2019-05-11T09:33:08.775Z,31.20
2019-05-11T09:35:50.036Z,30.80
2019-05-11T09:38:18.582Z,30.70
2019-05-11T09:40:52.571Z,30.50
2019-05-11T09:43:28.293Z,30.80
2019-05-11T09:46:01.685Z,30.80
2019-05-11T09:48:37.656Z,30.80
2019-05-11T09:51:10.649Z,30.60
2019-05-11T09:53:44.271Z,30.60
2019-05-11T09:56:18.497Z,30.50
2019-05-11T09:58:52.505Z,30.90
2019-05-11T10:01:26.220Z,31.50
2019-05-11T10:03:59.754Z,31.70
2019-05-11T10:06:33.456Z,31.90
2019-05-11T10:09:08.192Z,31.70
2019-05-11T10:11:42.262Z,31.10
2019-05-11T10:14:16.073Z,30.10
2019-05-11T10:16:49.684Z,30.40
2019-05-11T10:19:23.415Z,29.90
2019-05-11T10:21:58.051Z,30.20
2019-05-11T10:24:32.153Z,30.60
2019-05-11T10:27:08.279Z,29.10
2019-05-11T10:29:41.361Z,29.70
2019-05-11T10:32:15.012Z,29.80
2019-05-11T10:34:48.781Z,29.00
2019-05-11T10:37:22.514Z,29.70
2019-05-11T10:39:57.748Z,30.00
2019-05-11T10:42:31.649Z,30.20
2019-05-11T10:45:05.469Z,30.90
2019-05-11T10:47:39.079Z,31.40
2019-05-11T10:50:13.041Z,31.10
2019-05-11T10:52:48.387Z,30.30
2019-05-11T10:55:22.330Z,29.30
2019-05-11T10:57:58.095Z,29.70
2019-05-11T11:00:31.736Z,29.90
2019-05-11T11:03:05.588Z,30.00
2019-05-11T11:05:39.398Z,30.00
2019-05-11T11:08:13.197Z,30.00
2019-05-11T11:10:48.366Z,28.30
2019-05-11T11:13:22.400Z,28.60
2019-05-11T11:15:58.185Z,28.80
2019-05-11T11:18:32.567Z,29.20
2019-05-11T11:21:08.507Z,28.40
2019-05-11T11:23:41.742Z,28.60
2019-05-11T11:26:15.449Z,28.40
2019-05-11T11:28:49.246Z,28.70
2019-05-11T11:31:22.888Z,28.10
2019-05-11T11:33:58.524Z,28.70
2019-05-11T11:36:32.104Z,28.90
2019-05-11T11:39:08.315Z,28.80
2019-05-11T11:41:41.997Z,28.80
2019-05-11T11:44:18.315Z,29.00
2019-05-11T11:46:55.146Z,28.30
2019-05-11T11:49:28.265Z,27.40
2019-05-11T11:52:01.808Z,27.80
2019-05-11T11:54:35.604Z,28.30
2019-05-11T11:57:09.342Z,28.20
2019-05-11T11:59:44.494Z,29.60
2019-05-11T12:02:19.098Z,29.10
2019-05-11T12:04:53.120Z,28.90
2019-05-11T12:07:28.482Z,29.00
2019-05-11T12:10:02.464Z,28.80
2019-05-11T12:12:38.436Z,29.10
2019-05-11T12:15:11.919Z,29.10
2019-05-11T12:17:45.591Z,29.10
2019-05-11T12:20:19.506Z,28.60
2019-05-11T12:22:53.722Z,29.30
2019-05-11T12:25:27.952Z,28.80
2019-05-11T12:28:01.923Z,29.00
2019-05-11T12:30:37.562Z,29.10
2019-05-11T12:33:11.062Z,29.00
2019-05-11T12:35:44.884Z,29.10
2019-05-11T12:38:18.766Z,29.30
2019-05-11T12:40:53.349Z,29.30
2019-05-11T12:43:27.716Z,29.50
2019-05-11T12:46:01.778Z,29.50
2019-05-11T12:48:37.743Z,29.30
2019-05-11T12:51:11.087Z,29.40
2019-05-11T12:53:44.962Z,29.50
2019-05-11T12:56:19.136Z,28.90
2019-05-11T12:58:53.230Z,28.80
2019-05-11T13:01:29.000Z,28.80
2019-05-11T13:04:02.441Z,29.30
2019-05-11T13:06:38.310Z,29.30
2019-05-11T13:09:11.734Z,29.60
2019-05-11T13:11:45.575Z,29.80
2019-05-11T13:14:19.230Z,30.20
2019-05-11T13:16:52.961Z,30.40
2019-05-11T13:19:28.185Z,30.70
2019-05-11T13:22:02.278Z,30.90
2019-05-11T13:24:38.171Z,30.80
2019-05-11T13:27:11.465Z,31.00
2019-05-11T13:29:45.183Z,31.00
2019-05-11T13:32:19.012Z,31.00
2019-05-11T13:34:52.722Z,30.60
2019-05-11T13:37:28.314Z,30.70
2019-05-11T13:40:02.177Z,30.60
2019-05-11T13:42:38.326Z,30.70
2019-05-11T13:45:11.503Z,30.70
2019-05-11T13:47:52.448Z,30.90
2019-05-11T13:50:20.824Z,30.70
2019-05-11T13:52:54.556Z,30.70
2019-05-11T13:55:29.773Z,30.90
2019-05-11T13:58:03.614Z,31.10
2019-05-11T14:00:38.077Z,31.20
2019-05-11T14:03:14.610Z,31.30
2019-05-11T14:05:48.455Z,31.30
2019-05-11T14:08:22.333Z,31.10
2019-05-11T14:10:57.889Z,31.30
2019-05-11T14:13:31.516Z,31.20
2019-05-11T14:16:05.355Z,31.10
2019-05-11T14:18:39.273Z,30.50
2019-05-11T14:21:13.018Z,30.60
2019-05-11T14:23:48.426Z,30.80
2019-05-11T14:26:22.194Z,30.90
2019-05-11T14:28:57.793Z,30.90
2019-05-11T14:31:31.602Z,31.00
2019-05-11T14:34:05.496Z,31.20
2019-05-11T14:36:39.394Z,31.10
2019-05-11T14:39:13.241Z,31.20
2019-05-11T14:41:48.783Z,31.20
2019-05-11T14:44:22.553Z,30.90
2019-05-11T14:46:59.375Z,30.80
2019-05-11T14:49:33.307Z,30.90
2019-05-11T14:52:08.414Z,31.10
2019-05-11T14:54:42.180Z,31.30
2019-05-11T14:57:18.445Z,31.30
2019-05-11T14:59:51.467Z,31.50
2019-05-11T15:02:25.418Z,31.60
2019-05-11T15:04:59.201Z,31.50
2019-05-11T15:07:32.913Z,31.50
2019-05-11T15:10:08.030Z,31.50
2019-05-11T15:12:42.055Z,31.50
2019-05-11T15:15:18.684Z,31.40
2019-05-11T15:17:52.396Z,31.50
2019-05-11T15:20:28.545Z,31.30
2019-05-11T15:23:01.655Z,31.30
2019-05-11T15:25:37.687Z,31.50
2019-05-11T15:28:10.913Z,31.70
2019-05-11T15:30:44.732Z,32.00
2019-05-11T15:33:22.453Z,31.90
2019-05-11T15:35:58.170Z,32.00
2019-05-11T15:38:31.661Z,32.20
2019-05-11T15:41:08.373Z,32.60
2019-05-11T15:43:42.356Z,32.50
2019-05-11T15:46:19.400Z,32.60
2019-05-11T15:48:58.801Z,32.70
2019-05-11T15:51:28.977Z,32.70
2019-05-11T15:54:02.626Z,32.60
2019-05-11T15:56:38.327Z,32.80
2019-05-11T15:59:11.847Z,33.10
2019-05-11T16:01:45.746Z,33.20
2019-05-11T16:04:19.727Z,33.50
2019-05-11T16:06:53.486Z,33.10
2019-05-11T16:09:29.016Z,33.30
2019-05-11T16:12:02.686Z,33.30
2019-05-11T16:14:38.314Z,33.30
2019-05-11T16:17:11.786Z,33.40
2019-05-11T16:19:45.674Z,33.70
2019-05-11T16:22:21.191Z,33.80
2019-05-11T16:24:55.147Z,33.90
2019-05-11T16:27:28.807Z,33.90
2019-05-11T16:30:02.534Z,33.70
2019-05-11T16:32:38.632Z,33.70
2019-05-11T16:35:12.367Z,33.80
2019-05-11T16:37:48.380Z,33.80
2019-05-11T16:40:21.909Z,33.90
2019-05-11T16:42:56.694Z,34.10
2019-05-11T16:45:31.286Z,34.40
2019-05-11T16:48:05.031Z,34.30
2019-05-11T16:50:38.745Z,34.50
2019-05-11T16:53:12.526Z,34.60
2019-05-11T16:55:48.350Z,34.80
2019-05-11T16:58:21.646Z,34.60
2019-05-11T17:00:57.944Z,34.50
2019-05-11T17:03:31.047Z,35.10
2019-05-11T17:06:04.809Z,34.40
2019-05-11T17:08:38.572Z,34.50
2019-05-11T17:11:12.367Z,34.60
2019-05-11T17:13:48.195Z,34.80
2019-05-11T17:16:21.607Z,34.90
2019-05-11T17:18:55.212Z,35.10
2019-05-11T17:21:29.723Z,35.20
2019-05-11T17:24:03.791Z,35.50
2019-05-11T17:26:38.536Z,35.50
2019-05-11T17:29:12.430Z,35.70
2019-05-11T17:31:48.334Z,35.80
2019-05-11T17:34:21.687Z,35.90
2019-05-11T17:36:57.854Z,36.20
2019-05-11T17:39:31.194Z,36.30
2019-05-11T17:42:05.107Z,36.50
2019-05-11T17:44:38.968Z,36.50
2019-05-11T17:47:12.769Z,36.50
2019-05-11T17:49:57.397Z,36.60
2019-05-11T17:52:22.039Z,36.80
2019-05-11T17:54:55.867Z,37.10
2019-05-11T17:57:29.668Z,37.30
2019-05-11T18:00:03.727Z,37.40
2019-05-11T18:02:39.011Z,37.70
2019-05-11T18:05:13.286Z,37.60
2019-05-11T18:07:46.989Z,37.70
2019-05-11T18:10:20.827Z,37.90
2019-05-11T18:12:54.927Z,38.00
2019-05-11T18:15:28.967Z,38.20
2019-05-11T18:18:02.647Z,38.30
2019-05-11T18:20:38.033Z,38.60
2019-05-11T18:23:12.045Z,38.80
2019-05-11T18:25:47.877Z,39.00
2019-05-11T18:28:21.237Z,39.30
2019-05-11T18:30:58.223Z,39.50
2019-05-11T18:33:31.766Z,39.70
2019-05-11T18:36:07.868Z,40.00
2019-05-11T18:38:41.146Z,40.00
2019-05-11T18:41:15.107Z,40.00
2019-05-11T18:43:48.907Z,40.00
2019-05-11T18:46:22.679Z,40.00
2019-05-11T18:48:56.367Z,40.10
2019-05-11T18:51:30.246Z,40.20
2019-05-11T18:54:04.257Z,40.30
2019-05-11T18:56:38.635Z,40.50
2019-05-11T18:59:12.446Z,40.60
2019-05-11T19:01:48.376Z,40.70
2019-05-11T19:04:21.650Z,40.80
2019-05-11T19:06:55.491Z,40.80
2019-05-11T19:09:29.286Z,40.90
2019-05-11T19:12:03.287Z,41.10
2019-05-11T19:14:38.681Z,41.20
2019-05-11T19:17:12.827Z,41.20
2019-05-11T19:19:48.608Z,41.50
2019-05-11T19:22:22.189Z,41.70
2019-05-11T19:24:58.183Z,41.90
2019-05-11T19:27:31.488Z,42.10
2019-05-11T19:30:08.078Z,42.30
2019-05-11T19:32:42.651Z,42.50
2019-05-11T19:35:17.590Z,42.60
2019-05-11T19:37:52.047Z,42.60
2019-05-11T19:40:25.807Z,42.90
2019-05-11T19:42:59.607Z,43.00
2019-05-11T19:45:33.395Z,43.00
2019-05-11T19:48:08.366Z,43.20
2019-05-11T19:50:42.500Z,43.40
2019-05-11T19:53:18.618Z,43.50
2019-05-11T19:55:51.887Z,43.60
2019-05-11T19:58:25.768Z,43.60
2019-05-11T20:00:59.467Z,43.80
2019-05-11T20:03:33.227Z,44.00
2019-05-11T20:06:08.832Z,44.20
2019-05-11T20:08:42.528Z,44.30
2019-05-11T20:11:18.527Z,44.40
2019-05-11T20:13:51.954Z,44.60
2019-05-11T20:16:25.860Z,44.70
2019-05-11T20:18:59.627Z,44.80
2019-05-11T20:21:38.025Z,45.00
2019-05-11T20:24:11.269Z,45.20
2019-05-11T20:26:45.094Z,45.30
2019-05-11T20:29:19.194Z,45.40
2019-05-11T20:31:53.048Z,45.40
2019-05-11T20:34:28.782Z,45.50
2019-05-11T20:37:02.366Z,45.60
2019-05-11T20:39:37.920Z,45.70
2019-05-11T20:42:11.928Z,45.80
2019-05-11T20:44:45.787Z,46.00
2019-05-11T20:47:22.948Z,45.90
2019-05-11T20:49:58.579Z,46.10
2019-05-11T20:52:32.251Z,46.20
2019-05-11T20:55:08.566Z,46.30
2019-05-11T20:57:41.666Z,46.40
2019-05-11T21:00:18.430Z,46.40
2019-05-11T21:02:51.749Z,46.40
2019-05-11T21:05:25.608Z,46.50
2019-05-11T21:07:59.547Z,46.60
2019-05-11T21:10:33.515Z,46.70
2019-05-11T21:13:08.579Z,46.70
2019-05-11T21:15:42.922Z,46.90
2019-05-11T21:18:18.447Z,47.00
2019-05-11T21:20:52.440Z,47.00
2019-05-11T21:23:26.127Z,47.10
2019-05-11T21:25:59.978Z,47.20
2019-05-11T21:28:33.886Z,47.20
2019-05-11T21:31:08.159Z,47.30
2019-05-11T21:33:42.103Z,47.40
2019-05-11T21:36:18.049Z,47.40
2019-05-11T21:38:51.439Z,47.40
2019-05-11T21:41:25.446Z,47.60
2019-05-11T21:43:59.320Z,47.60
2019-05-11T21:46:33.206Z,47.70
2019-05-11T21:49:07.832Z,47.80
2019-05-11T21:51:41.798Z,47.80
2019-05-11T21:54:15.629Z,48.00
2019-05-11T21:56:49.556Z,48.70
2019-05-11T21:59:23.627Z,48.10
2019-05-11T22:01:57.347Z,48.10
2019-05-11T22:04:31.168Z,48.40
2019-05-11T22:07:04.906Z,48.60
2019-05-11T22:09:38.864Z,48.70
2019-05-11T22:12:12.820Z,48.80
2019-05-11T22:14:48.892Z,49.00
2019-05-11T22:17:23.085Z,49.20
2019-05-11T22:19:58.529Z,49.10
2019-05-11T22:22:32.251Z,49.30
2019-05-11T22:25:07.874Z,49.40
2019-05-11T22:27:41.668Z,49.40
2019-05-11T22:30:15.640Z,49.50
2019-05-11T22:32:49.456Z,49.60
2019-05-11T22:35:23.378Z,49.80
2019-05-11T22:37:57.854Z,49.80
2019-05-11T22:40:31.997Z,49.90
2019-05-11T22:43:05.814Z,50.00
2019-05-11T22:45:39.563Z,50.00
2019-05-11T22:48:13.399Z,50.00
2019-05-11T22:50:48.096Z,50.10
2019-05-11T22:53:22.360Z,50.20
2019-05-11T22:55:56.049Z,50.30
2019-05-11T22:58:29.838Z,50.30
2019-05-11T23:01:03.549Z,50.50
2019-05-11T23:03:38.298Z,50.60
2019-05-11T23:06:12.205Z,50.70
2019-05-11T23:08:48.316Z,50.90
2019-05-11T23:11:21.431Z,50.90
2019-05-11T23:13:55.221Z,50.80
2019-05-11T23:16:28.986Z,50.90
2019-05-11T23:19:02.682Z,51.00
2019-05-11T23:21:38.771Z,51.00
2019-05-11T23:24:11.900Z,51.10
2019-05-11T23:26:47.896Z,51.20
2019-05-11T23:29:20.933Z,51.30
2019-05-11T23:31:54.785Z,51.50
2019-05-11T23:34:28.412Z,51.70
2019-05-11T23:37:02.371Z,51.80
2019-05-11T23:39:38.341Z,51.90
2019-05-11T23:42:11.594Z,52.00
2019-05-11T23:44:45.940Z,51.90
2019-05-11T23:47:20.792Z,52.00
2019-05-11T23:49:54.532Z,52.10
2019-05-11T23:52:29.529Z,52.30
2019-05-11T23:55:03.479Z,52.20
2019-05-11T23:57:37.949Z,52.30
